createdAt,value
2022-10-13T00:02:46.900Z,7.86
2022-10-13T00:07:49.990Z,7.71
2022-10-13T00:12:52.929Z,7.54
2022-10-13T00:17:59.558Z,7.58
2022-10-13T00:23:03.826Z,7.30
2022-10-13T00:28:11.541Z,7.18
2022-10-13T00:33:14.075Z,7.37
2022-10-13T00:38:23.387Z,7.06
2022-10-13T00:43:32.364Z,6.88
2022-10-13T00:48:36.594Z,6.84
2022-10-13T00:53:44.337Z,6.76
2022-10-13T00:58:49.381Z,6.67
2022-10-13T01:03:54.338Z,6.69
2022-10-13T01:08:57.093Z,6.69
2022-10-13T01:14:21.838Z,6.91
2022-10-13T01:19:48.613Z,6.87
2022-10-13T01:25:36.064Z,6.76
2022-10-13T01:30:49.149Z,6.57
2022-10-13T01:36:50.289Z,6.44
2022-10-13T01:42:00.259Z,6.68
2022-10-13T01:47:04.003Z,6.71
2022-10-13T01:52:29.170Z,6.70
2022-10-13T01:57:41.069Z,6.53
2022-10-13T02:03:14.636Z,6.61
2022-10-13T02:08:35.411Z,6.41
2022-10-13T02:13:40.414Z,6.24
2022-10-13T02:18:46.124Z,6.01
2022-10-13T02:23:49.833Z,6.28
2022-10-13T02:28:57.152Z,6.36
2022-10-13T02:34:00.468Z,6.17
2022-10-13T02:39:03.010Z,6.19
2022-10-13T02:44:09.896Z,6.22
2022-10-13T02:49:20.523Z,6.05
2022-10-13T02:54:23.174Z,6.16
2022-10-13T02:59:27.031Z,6.07
2022-10-13T03:04:29.974Z,6.19
2022-10-13T03:09:37.939Z,6.04
2022-10-13T03:14:42.574Z,5.89
2022-10-13T03:19:45.939Z,5.70
2022-10-13T03:24:52.644Z,5.56
2022-10-13T03:30:02.485Z,5.81
2022-10-13T03:35:10.288Z,5.97
2022-10-13T03:40:13.493Z,6.04
2022-10-13T03:45:20.217Z,5.95
2022-10-13T03:50:23.744Z,5.87
2022-10-13T03:55:28.509Z,5.89
2022-10-13T04:00:36.281Z,5.86
2022-10-13T04:05:38.973Z,5.85
2022-10-13T04:10:42.156Z,5.83
2022-10-13T04:15:44.344Z,5.78
2022-10-13T04:20:46.492Z,5.69
2022-10-13T04:25:48.693Z,5.88
2022-10-13T04:30:50.758Z,5.83
2022-10-13T04:35:53.110Z,5.78
2022-10-13T04:40:55.348Z,5.78
2022-10-13T04:46:07.675Z,5.72
2022-10-13T04:51:13.155Z,5.91
2022-10-13T04:56:18.029Z,5.98
2022-10-13T05:01:22.761Z,6.05
2022-10-13T05:06:32.879Z,6.42
2022-10-13T05:11:35.019Z,6.17
2022-10-13T05:16:37.766Z,6.59
2022-10-13T05:21:40.251Z,6.24
2022-10-13T05:26:42.519Z,7.15
2022-10-13T05:31:44.867Z,7.46
2022-10-13T05:36:47.123Z,7.74
2022-10-13T05:41:49.356Z,7.98
2022-10-13T05:46:56.362Z,8.38
2022-10-13T05:52:04.768Z,8.82
2022-10-13T05:57:23.522Z,8.59
2022-10-13T06:02:31.710Z,9.31
2022-10-13T06:07:35.222Z,9.64
2022-10-13T06:12:37.802Z,9.82
2022-10-13T06:17:40.000Z,10.54
2022-10-13T06:22:42.166Z,11.20
2022-10-13T06:27:44.497Z,13.28
2022-10-13T06:32:50.540Z,15.19
2022-10-13T06:37:53.458Z,16.45
2022-10-13T06:42:55.774Z,16.81
2022-10-13T06:47:58.092Z,16.69
2022-10-13T06:53:00.472Z,17.15
2022-10-13T06:58:02.968Z,17.30
2022-10-13T07:03:05.121Z,17.10
2022-10-13T07:08:07.247Z,18.36
2022-10-13T07:13:10.031Z,20.30
2022-10-13T07:18:12.602Z,21.29
2022-10-13T07:23:15.001Z,21.27
2022-10-13T07:28:17.481Z,21.05
2022-10-13T07:33:20.827Z,19.54
2022-10-13T07:38:23.089Z,18.50
2022-10-13T07:43:28.745Z,17.93
2022-10-13T07:53:54.077Z,17.86
2022-10-13T07:59:04.553Z,18.33
2022-10-13T08:09:27.965Z,20.13
2022-10-13T08:31:52.473Z,22.33
2022-10-13T08:36:56.879Z,23.94
2022-10-13T08:42:04.440Z,25.23
2022-10-13T08:47:46.567Z,25.50
2022-10-13T08:53:43.744Z,26.07
2022-10-13T08:59:48.654Z,26.42
2022-10-13T09:04:57.162Z,25.26
2022-10-13T09:11:08.800Z,26.36
2022-10-13T09:16:27.208Z,26.22
2022-10-13T09:21:30.499Z,25.58
2022-10-13T09:26:42.059Z,25.49
2022-10-13T09:31:44.656Z,26.14
2022-10-13T09:37:16.925Z,25.17
2022-10-13T09:42:30.637Z,24.18
2022-10-13T09:47:36.687Z,24.14
2022-10-13T09:52:39.310Z,23.30
2022-10-13T09:57:51.823Z,23.96
2022-10-13T10:03:12.661Z,24.68
2022-10-13T10:08:33.530Z,25.08
2022-10-13T10:13:47.079Z,25.73
2022-10-13T10:18:58.939Z,25.46
2022-10-13T10:24:20.509Z,25.08
2022-10-13T10:29:37.322Z,24.78
2022-10-13T10:35:17.474Z,23.89
2022-10-13T10:40:47.793Z,23.04
2022-10-13T10:45:50.172Z,22.93
2022-10-13T10:50:53.468Z,22.46
2022-10-13T10:56:09.824Z,22.81
2022-10-13T11:01:12.200Z,23.26
2022-10-13T11:06:18.089Z,23.34
2022-10-13T11:11:24.747Z,22.43
2022-10-13T11:16:38.511Z,22.13
2022-10-13T11:21:54.458Z,21.97
2022-10-13T11:27:17.118Z,21.32
2022-10-13T11:32:37.982Z,21.43
2022-10-13T11:38:07.789Z,21.27
2022-10-13T11:43:13.071Z,20.85
2022-10-13T11:48:31.620Z,21.10
2022-10-13T11:54:02.199Z,20.57
2022-10-13T11:59:05.161Z,20.35
2022-10-13T12:04:16.075Z,20.80
2022-10-13T12:09:21.101Z,20.66
2022-10-13T12:19:41.001Z,20.55
2022-10-13T12:25:33.108Z,20.98
2022-10-13T12:37:19.679Z,20.60
2022-10-13T12:49:04.130Z,20.52
2022-10-13T12:54:27.430Z,20.90
2022-10-13T12:59:31.816Z,20.54
2022-10-13T13:04:37.247Z,20.79
2022-10-13T13:09:41.399Z,20.08
2022-10-13T13:14:55.156Z,20.15
2022-10-13T13:19:58.615Z,20.05
2022-10-13T13:25:00.920Z,19.44
2022-10-13T13:30:03.507Z,19.38
2022-10-13T13:35:07.088Z,19.50
2022-10-13T13:40:22.978Z,19.21
2022-10-13T13:45:25.774Z,19.10
2022-10-13T13:50:34.753Z,18.83
2022-10-13T13:55:38.291Z,19.02
2022-10-13T14:51:59.029Z,17.83
2022-10-13T14:57:05.627Z,17.62
2022-10-13T15:02:10.258Z,17.50
2022-10-13T15:07:47.344Z,17.53
2022-10-13T15:12:52.672Z,16.90
2022-10-13T15:17:55.425Z,16.23
2022-10-13T15:23:09.420Z,16.24
2022-10-13T15:28:21.365Z,15.62
2022-10-13T15:33:28.578Z,15.35
2022-10-13T15:38:31.951Z,14.82
2022-10-13T15:43:34.996Z,14.48
2022-10-13T15:48:37.123Z,14.21
2022-10-13T15:53:39.492Z,13.98
2022-10-13T15:58:53.465Z,13.65
2022-10-13T16:03:57.060Z,13.05
2022-10-13T16:38:25.983Z,12.55
2022-10-13T17:37:07.243Z,8.79
2022-10-13T17:49:00.992Z,8.69
2022-10-13T18:00:03.513Z,8.68
2022-10-13T18:18:32.575Z,8.14
2022-10-13T18:24:02.514Z,8.55
2022-10-13T18:30:10.044Z,8.06
2022-10-13T18:35:44.105Z,7.95
2022-10-13T18:40:55.316Z,7.83
2022-10-13T18:46:04.616Z,8.13
2022-10-13T19:10:11.267Z,8.09
2022-10-13T19:22:39.183Z,8.48
2022-10-13T19:28:44.937Z,8.10
2022-10-13T19:33:50.858Z,7.19
2022-10-13T19:44:35.859Z,6.97
2022-10-13T19:49:38.510Z,7.08
2022-10-13T19:54:40.873Z,6.95
2022-10-13T19:59:47.422Z,6.70
2022-10-13T23:13:04.028Z,5.87
2022-10-13T23:23:44.477Z,6.36
2022-10-13T23:28:52.836Z,6.37
2022-10-13T23:33:59.111Z,6.25
2022-10-13T23:39:13.147Z,6.15
2022-10-13T23:44:39.036Z,6.54
2022-10-13T23:49:48.592Z,6.74
2022-10-13T23:55:01.082Z,5.99
